createdAt,value
2019-03-15T00:00:35.312Z,40.00
2019-03-15T00:01:35.292Z,40.00
2019-03-15T00:02:35.283Z,40.00
2019-03-15T00:03:35.284Z,40.00
2019-03-15T00:04:35.313Z,40.00
2019-03-15T00:05:35.253Z,40.00
2019-03-15T00:06:35.243Z,40.00
2019-03-15T00:07:35.301Z,40.00
2019-03-15T00:08:35.232Z,40.00
2019-03-15T00:09:35.215Z,40.00
2019-03-15T00:10:35.236Z,36.00
2019-03-15T00:11:35.215Z,40.00
2019-03-15T00:12:35.186Z,40.00
2019-03-15T00:13:35.173Z,40.00
2019-03-15T00:14:35.167Z,40.00
2019-03-15T00:15:35.153Z,40.00
2019-03-15T00:16:35.176Z,40.00
2019-03-15T00:17:35.134Z,40.00
2019-03-15T00:18:48.463Z,40.00
2019-03-15T00:19:35.096Z,40.00
2019-03-15T00:20:35.097Z,40.00
2019-03-15T00:21:35.073Z,36.00
2019-03-15T00:22:35.203Z,40.00
2019-03-15T00:23:35.054Z,40.00
2019-03-15T00:24:35.049Z,36.00
2019-03-15T00:25:35.040Z,36.00
2019-03-15T00:26:35.028Z,36.00
2019-03-15T00:27:35.035Z,40.00
2019-03-15T00:28:35.001Z,36.00
2019-03-15T00:29:34.993Z,36.00
2019-03-15T00:30:34.986Z,40.00
2019-03-15T00:31:34.976Z,36.00
2019-03-15T00:32:34.984Z,36.00
2019-03-15T00:33:34.985Z,36.00
2019-03-15T00:34:34.941Z,36.00
2019-03-15T00:35:35.861Z,36.00
2019-03-15T00:36:34.918Z,36.00
2019-03-15T00:37:34.902Z,36.00
2019-03-15T00:38:34.899Z,36.00
2019-03-15T00:39:34.948Z,36.00
2019-03-15T00:40:34.892Z,36.00
2019-03-15T00:41:34.868Z,40.00
2019-03-15T00:42:34.864Z,40.00
2019-03-15T00:43:34.845Z,40.00
2019-03-15T00:44:34.851Z,44.00
2019-03-15T00:45:34.908Z,44.00
2019-03-15T00:46:34.818Z,40.00
2019-03-15T00:47:34.814Z,40.00
2019-03-15T00:48:34.792Z,44.00
2019-03-15T00:49:47.476Z,40.00
2019-03-15T00:50:34.758Z,40.00
2019-03-15T00:51:34.786Z,40.00
2019-03-15T00:52:34.745Z,40.00
2019-03-15T00:53:34.732Z,40.00
2019-03-15T00:54:34.718Z,40.00
2019-03-15T00:55:34.712Z,36.00
2019-03-15T00:56:34.732Z,36.00
2019-03-15T00:57:34.768Z,36.00
2019-03-15T00:58:34.677Z,36.00
2019-03-15T00:59:34.708Z,40.00
2019-03-15T01:00:34.657Z,40.00
2019-03-15T01:01:34.643Z,40.00
2019-03-15T01:02:34.681Z,40.00
2019-03-15T01:03:34.723Z,40.00
2019-03-15T01:04:34.621Z,40.00
2019-03-15T01:05:34.632Z,40.00
2019-03-15T01:06:34.587Z,40.00
2019-03-15T01:07:34.592Z,40.00
2019-03-15T01:08:35.441Z,40.00
2019-03-15T01:09:34.597Z,40.00
2019-03-15T01:10:34.546Z,40.00
2019-03-15T01:11:34.537Z,40.00
2019-03-15T01:12:34.532Z,40.00
2019-03-15T01:13:34.526Z,40.00
2019-03-15T01:14:34.583Z,40.00
2019-03-15T01:15:34.515Z,40.00
2019-03-15T01:16:34.772Z,40.00
2019-03-15T01:17:34.474Z,36.00
2019-03-15T01:18:34.464Z,40.00
2019-03-15T01:19:34.449Z,40.00
2019-03-15T01:20:47.040Z,40.00
2019-03-15T01:21:34.424Z,40.00
2019-03-15T01:22:34.419Z,40.00
2019-03-15T01:23:34.402Z,40.00
2019-03-15T01:24:34.396Z,40.00
2019-03-15T01:25:34.388Z,40.00
2019-03-15T01:26:34.415Z,40.00
2019-03-15T01:27:34.364Z,40.00
2019-03-15T01:28:34.352Z,40.00
2019-03-15T01:29:34.344Z,40.00
2019-03-15T01:30:34.330Z,40.00
2019-03-15T01:31:34.319Z,40.00
2019-03-15T01:32:34.353Z,40.00
2019-03-15T01:33:34.298Z,40.00
2019-03-15T01:34:34.294Z,40.00
2019-03-15T01:35:34.301Z,40.00
2019-03-15T01:36:34.275Z,40.00
2019-03-15T01:37:34.269Z,40.00
2019-03-15T01:38:34.262Z,40.00
2019-03-15T01:39:34.258Z,40.00
2019-03-15T01:40:34.218Z,40.00
2019-03-15T01:41:34.216Z,40.00
2019-03-15T01:42:34.211Z,36.00
2019-03-15T01:43:34.237Z,36.00
2019-03-15T01:44:34.185Z,36.00
2019-03-15T01:45:34.183Z,36.00
2019-03-15T01:46:34.197Z,40.00
2019-03-15T01:47:34.144Z,40.00
2019-03-15T01:48:34.144Z,40.00
2019-03-15T01:49:34.209Z,40.00
2019-03-15T01:50:34.128Z,40.00
2019-03-15T01:51:47.202Z,40.00
2019-03-15T01:52:34.092Z,40.00
2019-03-15T01:53:34.087Z,40.00
2019-03-15T01:54:34.071Z,40.00
2019-03-15T01:55:34.074Z,40.00
2019-03-15T01:56:34.053Z,40.00
2019-03-15T01:57:34.039Z,40.00
2019-03-15T01:58:34.033Z,40.00
2019-03-15T01:59:34.018Z,40.00
2019-03-15T02:00:34.040Z,40.00
2019-03-15T02:01:34.008Z,40.00
2019-03-15T02:02:33.991Z,40.00
2019-03-15T02:03:33.992Z,40.00
2019-03-15T02:04:33.979Z,40.00
2019-03-15T02:05:33.955Z,40.00
2019-03-15T02:06:33.959Z,40.00
2019-03-15T02:07:34.632Z,40.00
2019-03-15T02:08:33.932Z,40.00
2019-03-15T02:09:33.924Z,40.00
2019-03-15T02:10:33.941Z,40.00
2019-03-15T02:11:33.900Z,40.00
2019-03-15T02:12:33.921Z,40.00
2019-03-15T02:13:33.874Z,40.00
2019-03-15T02:14:33.858Z,40.00
2019-03-15T02:15:33.904Z,40.00
2019-03-15T02:16:34.456Z,40.00
2019-03-15T02:17:33.824Z,40.00
2019-03-15T02:18:33.829Z,40.00
2019-03-15T02:19:33.796Z,40.00
2019-03-15T02:20:33.954Z,40.00
2019-03-15T02:21:33.800Z,40.00
2019-03-15T02:22:46.929Z,40.00
2019-03-15T02:23:33.801Z,40.00
2019-03-15T02:24:33.752Z,40.00
2019-03-15T02:25:33.739Z,40.00
2019-03-15T02:26:33.728Z,40.00
2019-03-15T02:27:33.711Z,40.00
2019-03-15T02:28:33.711Z,40.00
2019-03-15T02:29:33.730Z,40.00
2019-03-15T02:30:33.807Z,40.00
2019-03-15T02:31:33.672Z,40.00
2019-03-15T02:32:33.667Z,40.00
2019-03-15T02:33:34.098Z,40.00
2019-03-15T02:34:33.639Z,40.00
2019-03-15T02:35:33.670Z,40.00
2019-03-15T02:36:33.644Z,40.00
2019-03-15T02:37:33.994Z,40.00
2019-03-15T02:38:33.598Z,40.00
2019-03-15T02:39:33.585Z,40.00
2019-03-15T02:40:33.573Z,40.00
2019-03-15T02:41:33.583Z,40.00
2019-03-15T02:42:33.559Z,40.00
2019-03-15T02:43:33.539Z,40.00
2019-03-15T02:44:33.548Z,40.00
2019-03-15T02:45:33.567Z,40.00
2019-03-15T02:46:33.539Z,40.00
2019-03-15T02:47:33.501Z,40.00
2019-03-15T02:48:33.497Z,40.00
2019-03-15T02:49:34.827Z,40.00
2019-03-15T02:50:33.485Z,36.00
2019-03-15T02:51:33.462Z,40.00
2019-03-15T02:52:33.608Z,40.00
2019-03-15T02:53:46.226Z,40.00
2019-03-15T02:54:33.440Z,36.00
2019-03-15T02:55:33.407Z,40.00
2019-03-15T02:56:33.404Z,36.00
2019-03-15T02:57:33.438Z,40.00
2019-03-15T02:58:33.377Z,40.00
2019-03-15T02:59:33.373Z,40.00
2019-03-15T03:00:33.364Z,40.00
2019-03-15T03:01:33.976Z,40.00
2019-03-15T03:02:33.336Z,40.00
2019-03-15T03:03:33.364Z,36.00
2019-03-15T03:04:33.365Z,40.00
2019-03-15T03:05:34.327Z,40.00
2019-03-15T03:06:33.300Z,40.00
2019-03-15T03:07:33.307Z,36.00
2019-03-15T03:08:33.281Z,36.00
2019-03-15T03:09:34.182Z,40.00
2019-03-15T03:10:33.255Z,40.00
2019-03-15T03:11:33.252Z,40.00
2019-03-15T03:12:33.231Z,40.00
2019-03-15T03:13:33.220Z,40.00
2019-03-15T03:14:33.314Z,40.00
2019-03-15T03:15:33.213Z,40.00
2019-03-15T03:16:33.188Z,36.00
2019-03-15T03:17:33.181Z,40.00
2019-03-15T03:18:34.557Z,40.00
2019-03-15T03:19:33.165Z,40.00
2019-03-15T03:20:33.164Z,36.00
2019-03-15T03:21:33.141Z,36.00
2019-03-15T03:22:33.132Z,40.00
2019-03-15T03:23:33.201Z,36.00
2019-03-15T03:24:45.777Z,36.00
2019-03-15T03:25:33.126Z,36.00
2019-03-15T03:26:33.083Z,36.00
2019-03-15T03:27:34.041Z,36.00
2019-03-15T03:28:33.066Z,40.00
2019-03-15T03:29:33.050Z,36.00
2019-03-15T03:30:33.054Z,36.00
2019-03-15T03:31:33.297Z,36.00
2019-03-15T03:32:33.025Z,36.00
2019-03-15T03:33:33.007Z,36.00
2019-03-15T03:34:33.050Z,36.00
2019-03-15T03:35:32.987Z,36.00
2019-03-15T03:36:32.977Z,36.00
2019-03-15T03:37:32.994Z,36.00
2019-03-15T03:38:32.949Z,36.00
2019-03-15T03:39:34.329Z,40.00
2019-03-15T03:40:32.965Z,40.00
2019-03-15T03:41:32.938Z,40.00
2019-03-15T03:42:32.913Z,40.00
2019-03-15T03:43:32.913Z,40.00
2019-03-15T03:44:32.897Z,40.00
2019-03-15T03:45:32.870Z,40.00
2019-03-15T03:46:32.868Z,40.00
2019-03-15T03:47:33.332Z,40.00
2019-03-15T03:48:32.889Z,40.00
2019-03-15T03:49:32.826Z,36.00
2019-03-15T03:50:32.816Z,40.00
2019-03-15T03:51:32.807Z,40.00
2019-03-15T03:52:32.795Z,40.00
2019-03-15T03:53:32.793Z,40.00
2019-03-15T03:54:32.789Z,40.00
2019-03-15T03:55:46.002Z,44.00
2019-03-15T03:56:32.751Z,44.00
2019-03-15T03:57:32.852Z,40.00
2019-03-15T03:58:32.736Z,44.00
2019-03-15T03:59:32.760Z,44.00
2019-03-15T04:00:32.718Z,44.00
2019-03-15T04:01:32.703Z,44.00
2019-03-15T04:02:33.158Z,44.00
2019-03-15T04:03:32.681Z,48.00
2019-03-15T04:04:32.672Z,48.00
2019-03-15T04:05:32.709Z,52.00
2019-03-15T04:06:32.651Z,52.00
2019-03-15T04:07:32.640Z,56.00
2019-03-15T04:08:32.647Z,60.00
2019-03-15T04:09:32.623Z,60.00
2019-03-15T04:10:32.613Z,68.00
2019-03-15T04:11:32.648Z,68.00
2019-03-15T04:12:32.589Z,72.00
2019-03-15T04:13:32.584Z,76.00
2019-03-15T04:14:32.578Z,84.00
2019-03-15T04:15:32.547Z,88.00
2019-03-15T04:16:32.548Z,100.00
2019-03-15T04:17:32.603Z,108.00
2019-03-15T04:18:32.527Z,112.00
2019-03-15T04:19:32.516Z,120.00
2019-03-15T04:20:32.496Z,124.00
2019-03-15T04:21:32.516Z,132.00
2019-03-15T04:22:32.473Z,140.00
2019-03-15T04:23:32.503Z,148.00
2019-03-15T04:24:32.456Z,152.00
2019-03-15T04:25:32.447Z,164.00
2019-03-15T04:26:44.254Z,180.00
2019-03-15T04:27:32.425Z,192.00
2019-03-15T04:28:32.405Z,204.00
2019-03-15T04:29:32.517Z,196.00
2019-03-15T04:30:32.392Z,216.00
2019-03-15T04:31:32.381Z,228.00
2019-03-15T04:32:32.387Z,248.00
2019-03-15T04:33:32.355Z,268.00
2019-03-15T04:34:32.364Z,288.00
2019-03-15T04:35:32.344Z,304.00
2019-03-15T04:36:32.326Z,332.00
2019-03-15T04:37:32.308Z,356.00
2019-03-15T04:38:32.356Z,376.00
2019-03-15T04:39:32.289Z,396.00
2019-03-15T04:40:32.285Z,424.00
2019-03-15T04:41:32.281Z,416.00
2019-03-15T04:42:32.256Z,424.00
2019-03-15T04:43:32.257Z,416.00
2019-03-15T04:44:32.236Z,432.00
2019-03-15T04:45:32.261Z,444.00
2019-03-15T04:46:32.223Z,456.00
2019-03-15T04:47:32.213Z,464.00
2019-03-15T04:48:32.199Z,476.00
2019-03-15T04:49:32.208Z,492.00
2019-03-15T04:50:32.186Z,492.00
2019-03-15T04:51:32.189Z,496.00
2019-03-15T04:52:32.167Z,520.00
2019-03-15T04:53:32.145Z,560.00
2019-03-15T04:54:32.132Z,592.00
2019-03-15T04:55:32.167Z,636.00
2019-03-15T04:56:32.103Z,672.00
2019-03-15T04:57:44.258Z,728.00
2019-03-15T04:58:32.084Z,808.00
2019-03-15T04:59:32.069Z,824.00
2019-03-15T05:00:32.065Z,924.00
2019-03-15T05:01:32.049Z,1028.00
2019-03-15T05:02:32.043Z,1076.00
2019-03-15T05:03:32.061Z,1112.00
2019-03-15T05:04:32.020Z,1120.00
2019-03-15T05:05:32.023Z,1176.00
2019-03-15T05:06:31.998Z,1200.00
2019-03-15T05:07:31.985Z,1200.00
2019-03-15T05:08:32.011Z,1208.00
2019-03-15T05:09:32.002Z,1240.00
2019-03-15T05:10:31.950Z,1288.00
2019-03-15T05:11:31.948Z,1280.00
2019-03-15T05:12:31.951Z,1336.00
2019-03-15T05:13:31.938Z,1400.00
2019-03-15T05:14:31.960Z,1488.00
2019-03-15T05:15:31.902Z,1528.00
2019-03-15T05:16:31.884Z,1676.00
2019-03-15T05:17:31.871Z,1840.00
2019-03-15T05:18:32.013Z,2072.00
2019-03-15T05:19:31.903Z,2208.00
2019-03-15T05:20:31.881Z,2340.00
2019-03-15T05:21:31.834Z,2380.00
2019-03-15T05:22:31.818Z,2392.00
2019-03-15T05:23:31.810Z,2380.00
2019-03-15T05:24:31.803Z,2388.00
2019-03-15T05:25:31.803Z,2360.00
2019-03-15T05:26:31.822Z,2284.00
2019-03-15T05:27:31.770Z,2208.00
2019-03-15T05:28:43.926Z,2164.00
2019-03-15T05:29:31.745Z,1980.00
2019-03-15T05:30:31.735Z,1772.00
2019-03-15T05:31:31.718Z,1604.00
2019-03-15T05:32:31.718Z,1532.00
2019-03-15T05:33:31.699Z,1396.00
2019-03-15T05:34:31.692Z,1372.00
2019-03-15T05:35:31.684Z,1332.00
2019-03-15T05:36:31.666Z,1400.00
2019-03-15T05:37:31.694Z,1440.00
2019-03-15T05:38:34.693Z,1480.00
2019-03-15T05:39:31.652Z,1428.00
2019-03-15T05:40:31.625Z,1376.00
2019-03-15T05:41:31.616Z,1364.00
2019-03-15T05:42:31.603Z,1484.00
2019-03-15T05:43:31.631Z,1600.00
2019-03-15T05:44:31.579Z,1740.00
2019-03-15T05:45:31.578Z,1784.00
2019-03-15T05:46:31.568Z,1792.00
2019-03-15T05:47:31.554Z,1892.00
2019-03-15T05:48:31.537Z,1952.00
2019-03-15T05:49:31.564Z,1996.00
2019-03-15T05:50:31.511Z,2044.00
2019-03-15T05:51:31.503Z,1944.00
2019-03-15T05:52:31.514Z,1944.00
2019-03-15T05:53:31.488Z,1760.00
2019-03-15T05:54:31.470Z,1808.00
2019-03-15T05:55:31.803Z,1760.00
2019-03-15T05:56:31.441Z,1748.00
2019-03-15T05:57:31.444Z,1780.00
2019-03-15T05:58:31.429Z,1716.00
2019-03-15T05:59:42.288Z,1608.00
2019-03-15T06:00:31.442Z,1612.00
2019-03-15T06:01:31.394Z,1812.00
2019-03-15T06:02:31.445Z,1928.00
2019-03-15T06:03:31.365Z,2000.00
2019-03-15T06:04:31.361Z,2160.00
2019-03-15T06:05:31.349Z,2300.00
2019-03-15T06:06:31.416Z,2332.00
2019-03-15T06:07:31.327Z,2464.00
2019-03-15T06:08:31.316Z,2728.00
2019-03-15T06:09:31.305Z,3052.00
2019-03-15T06:10:31.319Z,3444.00
2019-03-15T06:11:31.287Z,3664.00
2019-03-15T06:12:31.325Z,3796.00
2019-03-15T06:13:31.259Z,4032.00
2019-03-15T06:14:31.245Z,4140.00
2019-03-15T06:15:31.252Z,4212.00
2019-03-15T06:16:31.242Z,4136.00
2019-03-15T06:17:31.213Z,4064.00
2019-03-15T06:18:31.229Z,4124.00
2019-03-15T06:19:31.211Z,4236.00
2019-03-15T06:20:31.190Z,4256.00
2019-03-15T06:21:31.789Z,4244.00
2019-03-15T06:22:31.158Z,4124.00
2019-03-15T06:23:31.229Z,4196.00
2019-03-15T06:24:31.173Z,4248.00
2019-03-15T06:25:31.128Z,4192.00
2019-03-15T06:26:31.120Z,4256.00
2019-03-15T06:27:31.402Z,4368.00
2019-03-15T06:28:31.108Z,4304.00
2019-03-15T06:29:31.087Z,4348.00
2019-03-15T06:30:44.844Z,4436.00
2019-03-15T06:31:31.126Z,4448.00
2019-03-15T06:32:31.053Z,4244.00
2019-03-15T06:33:31.096Z,4260.00
2019-03-15T06:34:31.027Z,4120.00
2019-03-15T06:35:31.010Z,4152.00
2019-03-15T06:36:31.035Z,4268.00
2019-03-15T06:37:31.082Z,4200.00
2019-03-15T06:38:33.394Z,4072.00
2019-03-15T06:39:30.967Z,4156.00
2019-03-15T06:40:30.976Z,3912.00
2019-03-15T06:41:30.953Z,3776.00
2019-03-15T06:42:30.963Z,3772.00
2019-03-15T06:43:30.926Z,3820.00
2019-03-15T06:44:30.915Z,3964.00
2019-03-15T06:45:32.065Z,4216.00
2019-03-15T06:46:30.899Z,4072.00
2019-03-15T06:47:30.881Z,3976.00
2019-03-15T06:48:30.908Z,3944.00
2019-03-15T06:49:30.855Z,3816.00
2019-03-15T06:50:30.975Z,3844.00
2019-03-15T06:51:30.854Z,3840.00
2019-03-15T06:52:30.826Z,3996.00
2019-03-15T06:53:30.820Z,4044.00
2019-03-15T06:54:30.808Z,4340.00
2019-03-15T06:55:30.821Z,4232.00
2019-03-15T06:56:30.778Z,4248.00
2019-03-15T06:57:30.886Z,4104.00
2019-03-15T06:58:30.755Z,4352.00
2019-03-15T06:59:30.809Z,4440.00
2019-03-15T07:00:30.757Z,4756.00
2019-03-15T07:01:43.412Z,5068.00
2019-03-15T07:02:30.715Z,5004.00
2019-03-15T07:03:30.710Z,5000.00
2019-03-15T07:04:30.693Z,4956.00
2019-03-15T07:05:30.690Z,4912.00
2019-03-15T07:06:30.671Z,5124.00
2019-03-15T07:07:30.656Z,5388.00
2019-03-15T07:08:30.653Z,5660.00
2019-03-15T07:09:31.024Z,5836.00
2019-03-15T07:10:30.657Z,5836.00
2019-03-15T07:11:30.638Z,5860.00
2019-03-15T07:12:30.599Z,6480.00
2019-03-15T07:13:30.594Z,7452.00
2019-03-15T07:14:30.589Z,8264.00
2019-03-15T07:15:30.578Z,9188.00
2019-03-15T07:16:30.583Z,9404.00
2019-03-15T07:17:30.553Z,9408.00
2019-03-15T07:18:30.540Z,9396.00
2019-03-15T07:19:30.754Z,9596.00
2019-03-15T07:20:30.541Z,8720.00
2019-03-15T07:21:30.521Z,8436.00
2019-03-15T07:22:30.502Z,8452.00
2019-03-15T07:23:30.687Z,9180.00
2019-03-15T07:24:30.474Z,9656.00
2019-03-15T07:25:31.368Z,9780.00
2019-03-15T07:26:30.473Z,9956.00
2019-03-15T07:27:30.561Z,9416.00
2019-03-15T07:28:30.437Z,9028.00
2019-03-15T07:29:30.418Z,9168.00
2019-03-15T07:30:30.406Z,8484.00
2019-03-15T07:31:30.398Z,8048.00
2019-03-15T07:32:42.936Z,7608.00
2019-03-15T07:33:30.398Z,7412.00
2019-03-15T07:34:30.368Z,7684.00
2019-03-15T07:35:30.352Z,7632.00
2019-03-15T07:36:30.444Z,7356.00
2019-03-15T07:37:30.503Z,7448.00
2019-03-15T07:38:30.363Z,8416.00
2019-03-15T07:39:30.309Z,9528.00
2019-03-15T07:40:30.305Z,10808.00
2019-03-15T07:41:30.295Z,11668.00
2019-03-15T07:42:30.276Z,12608.00
2019-03-15T07:43:30.263Z,12488.00
2019-03-15T07:44:30.331Z,11688.00
2019-03-15T07:45:30.249Z,10712.00
2019-03-15T07:46:30.278Z,8524.00
2019-03-15T07:47:30.404Z,7020.00
2019-03-15T07:48:30.280Z,6156.00
2019-03-15T07:49:30.197Z,6032.00
2019-03-15T07:50:30.295Z,5988.00
2019-03-15T07:51:30.251Z,6316.00
2019-03-15T07:52:30.173Z,6628.00
2019-03-15T07:53:30.390Z,6664.00
2019-03-15T07:54:37.900Z,7096.00
2019-03-15T07:55:31.129Z,7220.00
2019-03-15T07:56:30.130Z,7044.00
2019-03-15T07:57:30.124Z,7200.00
2019-03-15T07:58:30.141Z,7176.00
2019-03-15T07:59:30.161Z,6800.00
2019-03-15T08:00:30.165Z,7380.00
2019-03-15T08:01:30.072Z,7552.00
2019-03-15T08:02:30.053Z,8716.00
2019-03-15T08:03:41.944Z,9504.00
2019-03-15T08:04:30.033Z,10452.00
2019-03-15T08:05:30.040Z,12476.00
2019-03-15T08:06:34.980Z,14764.00
2019-03-15T08:07:36.150Z,15492.00
2019-03-15T08:08:31.046Z,15872.00
2019-03-15T08:09:29.982Z,14696.00
2019-03-15T08:10:29.978Z,14444.00
2019-03-15T08:11:29.980Z,13656.00
2019-03-15T08:12:29.936Z,12640.00
2019-03-15T08:13:29.937Z,11916.00
2019-03-15T08:14:29.946Z,11508.00
2019-03-15T08:15:29.901Z,10852.00
2019-03-15T08:16:29.906Z,10476.00
2019-03-15T08:17:29.892Z,10056.00
2019-03-15T08:18:29.876Z,7692.00
2019-03-15T08:19:29.912Z,7840.00
2019-03-15T08:20:29.861Z,7364.00
2019-03-15T08:21:29.924Z,7872.00
2019-03-15T08:22:29.837Z,7992.00
2019-03-15T08:23:29.822Z,8184.00
2019-03-15T08:24:30.065Z,8072.00
2019-03-15T08:25:29.899Z,7580.00
2019-03-15T08:26:30.340Z,7676.00
2019-03-15T08:27:29.779Z,7656.00
2019-03-15T08:28:29.766Z,7836.00
2019-03-15T08:29:29.755Z,8064.00
2019-03-15T08:30:29.747Z,9032.00
2019-03-15T08:31:29.746Z,9452.00
2019-03-15T08:32:29.713Z,9364.00
2019-03-15T08:33:29.708Z,8908.00
2019-03-15T08:34:42.067Z,7756.00
2019-03-15T08:35:29.683Z,6596.00
2019-03-15T08:36:29.758Z,6448.00
2019-03-15T08:37:29.666Z,6456.00
2019-03-15T08:38:29.652Z,6532.00
2019-03-15T08:39:29.633Z,6560.00
2019-03-15T08:40:29.627Z,6644.00
2019-03-15T08:41:29.625Z,7016.00
2019-03-15T08:42:29.644Z,7416.00
2019-03-15T08:43:29.595Z,8000.00
2019-03-15T08:44:29.577Z,7916.00
2019-03-15T08:45:29.636Z,8056.00
2019-03-15T08:46:29.591Z,8172.00
2019-03-15T08:47:29.565Z,8552.00
2019-03-15T08:48:31.794Z,8716.00
2019-03-15T08:49:29.531Z,8312.00
2019-03-15T08:50:29.535Z,9052.00
2019-03-15T08:51:29.525Z,9276.00
2019-03-15T08:52:29.791Z,8556.00
2019-03-15T08:53:29.489Z,8336.00
2019-03-15T08:54:29.656Z,8200.00
2019-03-15T08:55:29.483Z,8452.00
2019-03-15T08:56:30.732Z,8084.00
2019-03-15T08:57:29.435Z,9896.00
2019-03-15T08:58:29.441Z,9664.00
2019-03-15T08:59:29.582Z,10216.00
2019-03-15T09:00:29.447Z,10464.00
2019-03-15T09:01:29.389Z,10544.00
2019-03-15T09:02:29.373Z,11252.00
2019-03-15T09:03:29.366Z,12680.00
2019-03-15T09:04:29.389Z,11604.00
2019-03-15T09:05:42.058Z,11012.00
2019-03-15T09:06:29.344Z,10644.00
2019-03-15T09:07:29.316Z,10480.00
2019-03-15T09:08:29.305Z,10164.00
2019-03-15T09:09:29.375Z,9624.00
2019-03-15T09:10:29.281Z,10164.00
2019-03-15T09:11:29.288Z,9816.00
2019-03-15T09:12:29.264Z,10084.00
2019-03-15T09:13:29.300Z,9960.00
2019-03-15T09:14:29.252Z,9904.00
2019-03-15T09:15:30.824Z,9928.00
2019-03-15T09:16:29.241Z,10592.00
2019-03-15T09:17:29.219Z,10796.00
2019-03-15T09:18:29.207Z,10604.00
2019-03-15T09:19:29.515Z,11340.00
2019-03-15T09:20:30.044Z,11204.00
2019-03-15T09:21:29.159Z,11444.00
2019-03-15T09:22:29.536Z,11716.00
2019-03-15T09:23:29.136Z,11924.00
2019-03-15T09:24:29.126Z,11996.00
2019-03-15T09:25:29.112Z,12900.00
2019-03-15T09:26:29.160Z,13324.00
2019-03-15T09:27:29.120Z,13528.00
2019-03-15T09:28:29.083Z,13444.00
2019-03-15T09:29:29.074Z,13740.00
2019-03-15T09:30:29.069Z,13644.00
2019-03-15T09:31:36.987Z,13572.00
2019-03-15T09:32:30.068Z,13704.00
2019-03-15T09:33:29.048Z,13492.00
2019-03-15T09:34:29.024Z,13844.00
2019-03-15T09:35:29.016Z,13776.00
2019-03-15T09:36:50.022Z,13560.00
2019-03-15T09:37:29.979Z,14780.00
2019-03-15T09:38:29.015Z,14124.00
2019-03-15T09:39:28.961Z,13920.00
2019-03-15T09:40:28.947Z,13916.00
2019-03-15T09:41:32.184Z,14596.00
2019-03-15T09:42:29.941Z,14460.00
2019-03-15T09:43:28.919Z,13612.00
2019-03-15T09:44:28.962Z,12904.00
2019-03-15T09:45:28.904Z,13608.00
2019-03-15T09:46:28.884Z,14736.00
2019-03-15T09:47:28.907Z,17096.00
2019-03-15T09:48:28.878Z,18656.00
2019-03-15T09:49:28.858Z,20160.00
2019-03-15T09:50:36.031Z,20352.00
2019-03-15T09:51:29.835Z,21920.00
2019-03-15T09:52:28.823Z,21632.00
2019-03-15T09:53:28.853Z,19872.00
2019-03-15T09:54:28.803Z,16624.00
2019-03-15T09:55:33.165Z,14956.00
2019-03-15T09:56:28.788Z,13824.00
2019-03-15T09:57:28.797Z,13748.00
2019-03-15T09:58:28.751Z,13896.00
2019-03-15T09:59:28.803Z,13896.00
2019-03-15T10:00:28.738Z,13744.00
2019-03-15T10:01:35.261Z,14140.00
2019-03-15T10:02:30.867Z,14548.00
2019-03-15T10:03:28.709Z,14864.00
2019-03-15T10:04:28.686Z,16548.00
2019-03-15T10:05:28.697Z,16944.00
2019-03-15T10:06:28.704Z,16640.00
2019-03-15T10:07:43.354Z,17440.00
2019-03-15T10:08:28.637Z,16632.00
2019-03-15T10:09:28.626Z,16560.00
2019-03-15T10:10:28.617Z,17156.00
2019-03-15T10:11:28.631Z,18784.00
2019-03-15T10:12:28.631Z,18176.00
2019-03-15T10:13:28.589Z,16872.00
2019-03-15T10:14:28.583Z,14576.00
2019-03-15T10:15:28.560Z,11724.00
2019-03-15T10:16:28.558Z,10160.00
2019-03-15T10:17:28.542Z,9420.00
2019-03-15T10:18:28.552Z,9356.00
2019-03-15T10:19:29.872Z,9436.00
2019-03-15T10:20:28.518Z,10172.00
2019-03-15T10:21:28.495Z,11308.00
2019-03-15T10:22:28.529Z,11928.00
2019-03-15T10:23:28.483Z,11988.00
2019-03-15T10:24:28.508Z,12188.00
2019-03-15T10:25:28.532Z,12120.00
2019-03-15T10:26:28.440Z,12080.00
2019-03-15T10:27:28.537Z,11956.00
2019-03-15T10:28:28.591Z,11932.00
2019-03-15T10:29:28.475Z,11500.00
2019-03-15T10:30:28.406Z,11692.00
2019-03-15T10:31:28.394Z,11612.00
2019-03-15T10:32:28.379Z,11376.00
2019-03-15T10:33:28.357Z,11148.00
2019-03-15T10:34:28.358Z,11376.00
2019-03-15T10:35:28.361Z,11264.00
2019-03-15T10:36:28.338Z,12012.00
2019-03-15T10:37:28.315Z,11920.00
2019-03-15T10:38:40.917Z,10848.00
2019-03-15T10:39:28.330Z,11432.00
2019-03-15T10:40:28.287Z,11032.00
2019-03-15T10:41:28.285Z,11964.00
2019-03-15T10:42:28.259Z,12088.00
2019-03-15T10:43:28.251Z,13208.00
2019-03-15T10:44:28.243Z,13440.00
2019-03-15T10:45:28.239Z,13364.00
2019-03-15T10:46:28.302Z,12948.00
2019-03-15T10:47:28.206Z,12016.00
2019-03-15T10:48:28.195Z,10744.00
2019-03-15T10:49:30.697Z,10480.00
2019-03-15T10:50:28.219Z,11260.00
2019-03-15T10:51:28.176Z,12212.00
2019-03-15T10:52:28.205Z,12784.00
2019-03-15T10:53:28.141Z,14012.00
2019-03-15T10:54:28.125Z,14512.00
2019-03-15T10:55:28.130Z,14132.00
2019-03-15T10:56:28.239Z,13488.00
2019-03-15T10:57:28.095Z,12096.00
2019-03-15T10:58:28.094Z,11880.00
2019-03-15T10:59:28.078Z,11468.00
2019-03-15T11:00:28.068Z,12504.00
2019-03-15T11:01:28.128Z,13784.00
2019-03-15T11:02:28.037Z,15996.00
2019-03-15T11:03:28.121Z,17888.00
2019-03-15T11:04:28.030Z,17856.00
2019-03-15T11:05:28.005Z,15748.00
2019-03-15T11:06:28.000Z,15200.00
2019-03-15T11:07:27.988Z,14924.00
2019-03-15T11:08:27.971Z,15036.00
2019-03-15T11:09:40.666Z,12080.00
2019-03-15T11:10:27.972Z,9952.00
2019-03-15T11:11:28.078Z,9816.00
2019-03-15T11:12:27.927Z,9824.00
2019-03-15T11:13:27.920Z,9752.00
2019-03-15T11:14:28.025Z,9520.00
2019-03-15T11:15:27.895Z,9144.00
2019-03-15T11:16:27.885Z,9004.00
2019-03-15T11:17:27.891Z,8724.00
2019-03-15T11:18:27.875Z,8536.00
2019-03-15T11:19:27.858Z,8420.00
2019-03-15T11:20:27.849Z,9732.00
2019-03-15T11:21:27.839Z,9832.00
2019-03-15T11:22:27.828Z,8308.00
2019-03-15T11:23:27.825Z,6988.00
2019-03-15T11:24:27.800Z,6336.00
2019-03-15T11:25:27.814Z,6216.00
2019-03-15T11:26:28.170Z,5348.00
2019-03-15T11:27:27.774Z,5008.00
2019-03-15T11:28:27.838Z,5000.00
2019-03-15T11:29:27.742Z,5536.00
2019-03-15T11:30:27.751Z,6528.00
2019-03-15T11:31:27.750Z,7248.00
2019-03-15T11:32:27.715Z,8260.00
2019-03-15T11:33:27.695Z,9188.00
2019-03-15T11:34:28.664Z,9392.00
2019-03-15T11:35:27.689Z,9420.00
2019-03-15T11:36:27.664Z,9460.00
2019-03-15T11:37:27.673Z,9620.00
2019-03-15T11:38:27.642Z,9512.00
2019-03-15T11:39:28.167Z,8916.00
2019-03-15T11:40:40.594Z,7924.00
2019-03-15T11:41:27.631Z,7356.00
2019-03-15T11:42:27.636Z,7424.00
2019-03-15T11:43:27.582Z,7184.00
2019-03-15T11:44:27.577Z,7100.00
2019-03-15T11:45:27.567Z,6484.00
2019-03-15T11:46:27.549Z,7268.00
2019-03-15T11:47:27.549Z,7748.00
2019-03-15T11:48:27.671Z,8608.00
2019-03-15T11:49:28.415Z,9788.00
2019-03-15T11:50:27.527Z,10372.00
2019-03-15T11:51:27.517Z,10428.00
2019-03-15T11:52:27.488Z,10544.00
2019-03-15T11:53:27.478Z,11796.00
2019-03-15T11:54:27.529Z,13144.00
2019-03-15T11:55:27.457Z,13168.00
2019-03-15T11:56:27.493Z,12984.00
2019-03-15T11:57:27.459Z,11972.00
2019-03-15T11:58:27.425Z,11020.00
2019-03-15T11:59:27.411Z,10452.00
2019-03-15T12:00:27.515Z,11512.00
2019-03-15T12:01:27.402Z,12392.00
2019-03-15T12:02:27.442Z,12972.00
2019-03-15T12:03:27.384Z,12112.00
2019-03-15T12:04:27.355Z,12152.00
2019-03-15T12:05:27.347Z,12476.00
2019-03-15T12:06:27.367Z,13564.00
2019-03-15T12:07:27.337Z,13636.00
2019-03-15T12:08:27.322Z,13620.00
2019-03-15T12:09:27.301Z,13448.00
2019-03-15T12:10:27.334Z,15152.00
2019-03-15T12:11:40.239Z,15656.00
2019-03-15T12:12:27.301Z,14204.00
2019-03-15T12:13:27.257Z,13688.00
2019-03-15T12:14:40.198Z,15056.00
2019-03-15T12:15:28.227Z,15888.00
2019-03-15T12:16:27.226Z,14464.00
2019-03-15T12:17:27.216Z,14800.00